»·PEaware :: SWA5634 KLAX-KLAS

SWA5634 :: KLAX-KLAS

FLIGHT INFORMATION

Flight Status: Arrived
Operator:
Southwest Airlines
More flights by this operator :: More flights under this callsign
Pilot: Alec D. (17934)
Aircraft: BOEING 737-700
(B737)
More flights by this aircraft type
Origin: KLAX Los Angeles Intl
United States
Destination: KLAS McCarran Intl
United States
More flights between these airports :: More routes between these airports
Route: ORCKA3 MISEN KEPEC6
File this flight plan on PilotEdge
Remarks:
Altitude:
(Current/Filed)
29,000ft
Speed:
(Current/Filed)
450kts
Departed: 09-Sep-18 08:49 AM
Arrived: 09-Sep-18 09:35 AM
Distance/Time
Traveled:
205nm/0:46
Distance/Time
To Go:
Arrived

Flight Plot

Page will automatically refresh every two minutes.

Flight plan parsing failed; only flown route is shown


Map Options




Map Legend


Flown Route
Filed Route
Departure Airport
Arrival Airport
Navaid (VOR, NDB)
Fix

Horizontal Profiles

Position Reports

Time Latitude Longitude Heading Altitude Ground
Speed
09-Sep-18 08:12 33.947428 -118.401875 90 136ft 0kts
09-Sep-18 08:13 33.947428 -118.401875 90 136ft 0kts
09-Sep-18 08:14 33.947428 -118.401875 90 136ft 0kts
09-Sep-18 08:15 33.947428 -118.401875 90 136ft 0kts
09-Sep-18 08:16 33.947428 -118.401875 90 136ft 0kts
09-Sep-18 08:17 33.947428 -118.401875 90 136ft 0kts
09-Sep-18 08:18 33.947428 -118.401875 90 136ft 0kts
09-Sep-18 08:19 33.947428 -118.401875 90 136ft 0kts
09-Sep-18 08:20 33.947428 -118.401875 90 136ft 0kts
09-Sep-18 08:21 33.947428 -118.401875 90 136ft 0kts
09-Sep-18 08:22 33.947428 -118.401875 90 136ft 0kts
09-Sep-18 08:23 33.947428 -118.401875 90 136ft 0kts
09-Sep-18 08:24 33.947428 -118.401875 90 136ft 0kts
09-Sep-18 08:25 33.947428 -118.401875 90 136ft 0kts
09-Sep-18 08:26 33.947428 -118.401875 90 136ft 0kts
09-Sep-18 08:27 33.947428 -118.401875 90 136ft 0kts
09-Sep-18 08:28 33.947428 -118.401875 90 136ft 0kts
09-Sep-18 08:29 33.947428 -118.401875 90 136ft 0kts
09-Sep-18 08:30 33.947428 -118.401875 90 136ft 0kts
09-Sep-18 08:31 33.947428 -118.401875 90 136ft 0kts
09-Sep-18 08:32 33.947428 -118.401875 90 136ft 0kts
09-Sep-18 08:33 33.947428 -118.401875 90 136ft 0kts
09-Sep-18 08:34 33.947428 -118.401875 90 136ft 0kts
09-Sep-18 08:35 33.947428 -118.401875 90 136ft 0kts
09-Sep-18 08:36 33.947428 -118.401875 90 136ft 0kts
09-Sep-18 08:37 33.947428 -118.401875 90 136ft 0kts
09-Sep-18 08:38 33.947428 -118.401875 90 136ft 0kts
09-Sep-18 08:39 33.947249 -118.402407 13 136ft 2kts
09-Sep-18 08:40 33.947160 -118.402418 0 136ft 0kts
09-Sep-18 08:41 33.947161 -118.402418 0 136ft 0kts
09-Sep-18 08:42 33.947168 -118.402418 0 136ft 0kts
09-Sep-18 08:43 33.947175 -118.402418 0 136ft 0kts
09-Sep-18 08:44 33.947555 -118.402678 329 136ft 6kts
09-Sep-18 08:45 33.949390 -118.401803 3 136ft 0kts
09-Sep-18 08:46 33.949397 -118.401802 3 136ft 0kts
09-Sep-18 08:47 33.949404 -118.401802 3 136ft 0kts
09-Sep-18 08:48 33.949411 -118.401801 3 136ft 0kts
09-Sep-18 08:49 33.949417 -118.401801 3 136ft 0kts
09-Sep-18 08:50 33.950190 -118.402403 264 136ft 0kts
09-Sep-18 08:51 33.947421 -118.429035 262 744ft 154kts
09-Sep-18 08:52 33.940394 -118.498179 262 2740ft 211kts
09-Sep-18 08:53 33.933775 -118.564961 262 4079ft 205kts
09-Sep-18 08:54 33.909690 -118.614637 190 6560ft 252kts
09-Sep-18 08:55 33.875044 -118.550232 72 10014ft 294kts
09-Sep-18 08:56 33.918084 -118.461823 54 12191ft 337kts
09-Sep-18 08:57 33.973215 -118.366315 52 15038ft 363kts
09-Sep-18 08:58 34.030406 -118.260861 52 17995ft 387kts
09-Sep-18 08:59 34.092310 -118.151547 52 20823ft 402kts
09-Sep-18 09:00 34.156564 -118.037674 53 23220ft 417kts
09-Sep-18 09:01 34.221239 -117.922790 53 22974ft 415kts
09-Sep-18 09:02 34.286283 -117.806404 53 23082ft 416kts
09-Sep-18 09:03 34.352409 -117.688463 52 25297ft 430kts
09-Sep-18 09:04 34.423375 -117.569889 50 27462ft 437kts
09-Sep-18 09:05 34.494372 -117.450676 50 29014ft 433kts
09-Sep-18 09:06 34.564724 -117.332115 50 29027ft 434kts
09-Sep-18 09:07 34.635143 -117.213070 50 29024ft 434kts
09-Sep-18 09:08 34.705730 -117.093337 50 28983ft 435kts
09-Sep-18 09:09 34.776014 -116.973717 50 29005ft 435kts
09-Sep-18 09:10 34.846277 -116.853727 50 28737ft 434kts
09-Sep-18 09:11 34.916626 -116.733183 50 27176ft 437kts
09-Sep-18 09:12 34.985718 -116.611122 51 25648ft 435kts
09-Sep-18 09:13 35.053437 -116.490917 51 24112ft 425kts
09-Sep-18 09:14 35.121935 -116.376456 39 23631ft 399kts
09-Sep-18 09:15 35.202160 -116.278933 41 22034ft 407kts
09-Sep-18 09:16 35.280488 -116.180549 42 20524ft 398kts
09-Sep-18 09:17 35.356690 -116.084564 42 19045ft 389kts
09-Sep-18 09:18 35.431216 -115.990415 42 17652ft 381kts
09-Sep-18 09:19 35.504138 -115.898040 43 16274ft 372kts
09-Sep-18 09:20 35.575359 -115.807587 44 14894ft 364kts
09-Sep-18 09:21 35.643621 -115.720641 45 13560ft 337kts
09-Sep-18 09:22 35.705499 -115.641661 46 13054ft 308kts
09-Sep-18 09:23 35.770612 -115.575552 14 13047ft 309kts
09-Sep-18 09:24 35.856461 -115.569953 2 13036ft 309kts
09-Sep-18 09:25 35.942369 -115.564695 8 13025ft 309kts
09-Sep-18 09:26 35.994950 -115.491652 71 12112ft 292kts
09-Sep-18 09:27 36.023474 -115.399331 69 11021ft 277kts
09-Sep-18 09:28 36.036539 -115.307585 93 10605ft 275kts
09-Sep-18 09:29 36.026893 -115.212832 98 8971ft 284kts
09-Sep-18 09:30 36.015486 -115.117023 98 7113ft 276kts
09-Sep-18 09:31 36.004669 -115.024250 98 5134ft 271kts
09-Sep-18 09:32 36.026946 -114.948463 11 4033ft 249kts
09-Sep-18 09:33 36.073149 -114.984715 294 3868ft 193kts
09-Sep-18 09:34 36.073163 -115.045274 270 3085ft 162kts
09-Sep-18 09:35 36.073674 -115.098967 268 2612ft 151kts
09-Sep-18 09:36 36.073641 -115.143402 268 2192ft 53kts
09-Sep-18 09:37 36.074315 -115.149640 301 2191ft 0kts
09-Sep-18 09:38 36.074594 -115.150220 300 2191ft 13kts
09-Sep-18 09:39 36.078676 -115.150329 90 2191ft 15kts
09-Sep-18 09:40 36.080162 -115.148322 357 2191ft 10kts
09-Sep-18 09:41 36.080658 -115.147590 67 2191ft 0kts
09-Sep-18 09:42 36.080658 -115.147590 67 2191ft 0kts
09-Sep-18 09:43 36.080658 -115.147590 67 2191ft 0kts

Navigation Log

Ident Type
Flight plan parsing failed, navigation log unavailable